Time;durP1;ratioP1;P1;durP2;ratioP2;P2;SDS_P1;SDS_P2;PMS_P1;PMS_P2;Temp;Humidity;BMP_temperature;BMP_pressure;BME280_temperature;BME280_humidity;BME280_pressure;Samples;Min_cycle;Max_cycle;Signal;HPM_P1;HPM_P2
2023/10/26 00:00:06;;;;;;;26.88;14.90;;;;;;;9.42;100.00;99584.75;6263368;22;20007;-96
2023/10/26 00:02:35;;;;;;;25.52;14.88;;;;;;;9.40;100.00;99594.28;6265599;22;20008;-96
2023/10/26 00:05:01;;;;;;;25.73;14.73;;;;;;;9.42;100.00;99597.75;6264301;22;20000;-96
2023/10/26 00:07:39;;;;;;;26.20;14.77;;;;;;;9.39;100.00;99592.53;6263717;22;19996;-96
2023/10/26 00:10:20;;;;;;;27.08;14.15;;;;;;;9.37;100.00;99609.84;6262474;22;20058;-96
2023/10/26 00:12:54;;;;;;;29.35;14.98;;;;;;;9.37;100.00;99610.72;6263600;22;20003;-96
2023/10/26 00:15:21;;;;;;;25.95;14.55;;;;;;;9.35;100.00;99609.81;6263006;22;20003;-96
2023/10/26 00:17:50;;;;;;;28.42;15.02;;;;;;;9.34;100.00;99610.69;6262758;22;20061;-96
2023/10/26 00:20:19;;;;;;;28.30;15.05;;;;;;;9.33;100.00;99613.28;6261726;22;20014;-96
2023/10/26 00:23:05;;;;;;;25.67;14.73;;;;;;;9.34;100.00;99622.81;6262453;22;20007;-96
2023/10/26 00:25:41;;;;;;;25.73;14.30;;;;;;;9.33;100.00;99613.28;6264103;22;20033;-96
2023/10/26 00:28:10;;;;;;;26.13;14.43;;;;;;;9.30;100.00;99610.63;6264365;22;20103;-96
2023/10/26 00:30:38;;;;;;;28.33;15.33;;;;;;;9.31;100.00;99617.59;6263279;22;20024;-96
2023/10/26 00:33:07;;;;;;;25.85;13.70;;;;;;;9.29;100.00;99633.16;6263882;22;20245;-96
2023/10/26 00:35:33;;;;;;;26.50;14.07;;;;;;;9.26;100.00;99627.09;6264050;22;20015;-96
2023/10/26 00:38:18;;;;;;;23.13;12.25;;;;;;;9.27;100.00;99629.69;6262592;22;20007;-96
2023/10/26 00:40:56;;;;;;;20.55;11.90;;;;;;;9.20;100.00;99640.91;6258271;22;20000;-96
2023/10/26 00:43:24;;;;;;;20.55;11.80;;;;;;;9.16;100.00;99642.56;6259142;22;20027;-96
2023/10/26 00:46:02;;;;;;;23.80;12.68;;;;;;;9.15;100.00;99638.25;6257984;22;20000;-96
2023/10/26 00:48:35;;;;;;;21.83;11.57;;;;;;;9.14;100.00;99648.59;6262640;22;19999;-96
2023/10/26 00:51:01;;;;;;;19.75;11.40;;;;;;;9.13;100.00;99652.94;6259314;22;20033;-96
2023/10/26 00:53:27;;;;;;;21.73;11.98;;;;;;;9.11;100.00;99644.28;6257372;22;20039;-96
2023/10/26 00:56:01;;;;;;;22.15;11.38;;;;;;;9.11;100.00;99649.47;6256327;22;20011;-96
2023/10/26 00:58:29;;;;;;;27.55;13.05;;;;;;;9.11;100.00;99649.47;6258325;22;20057;-96
2023/10/26 01:00:59;;;;;;;23.52;12.98;;;;;;;9.10;100.00;99652.91;6258025;22;20012;-96
2023/10/26 01:03:34;;;;;;;23.00;12.63;;;;;;;9.10;100.00;99647.72;6259569;22;20067;-96
2023/10/26 01:06:02;;;;;;;23.25;13.35;;;;;;;9.10;100.00;99650.31;6258725;22;20008;-96
2023/10/26 01:08:33;;;;;;;23.17;13.05;;;;;;;9.11;100.00;99656.38;6254233;22;19988;-96
2023/10/26 01:11:02;;;;;;;23.38;13.77;;;;;;;9.12;100.00;99659.00;6256127;22;19999;-96
2023/10/26 01:13:33;;;;;;;24.58;13.75;;;;;;;9.13;100.00;99658.13;6256946;22;20379;-96
2023/10/26 01:16:04;;;;;;;26.42;14.20;;;;;;;9.13;100.00;99659.88;6257181;22;20007;-96
2023/10/26 01:18:33;;;;;;;26.20;14.68;;;;;;;9.14;100.00;99653.81;6259432;22;20000;-96
2023/10/26 01:21:01;;;;;;;25.42;14.10;;;;;;;9.15;100.00;99653.84;6256782;22;20464;-96
2023/10/26 01:23:30;;;;;;;25.40;14.77;;;;;;;9.15;100.00;99656.44;6256920;22;20381;-96
2023/10/26 01:26:01;;;;;;;27.13;15.10;;;;;;;9.17;100.00;99659.06;6257375;22;20485;-96
2023/10/26 01:28:38;;;;;;;25.92;14.70;;;;;;;9.17;100.00;99657.31;6260113;22;20006;-96
2023/10/26 01:31:07;;;;;;;25.38;13.88;;;;;;;9.16;100.00;99652.97;6262498;22;20003;-96
2023/10/26 01:33:40;;;;;;;24.70;14.32;;;;;;;9.15;100.00;99653.84;6263698;22;20007;-96
2023/10/26 01:36:06;;;;;;;26.55;14.10;;;;;;;9.13;100.00;99658.13;6264049;22;20021;-96
2023/10/26 01:38:32;;;;;;;23.90;13.93;;;;;;;9.12;100.00;99655.53;6259853;22;20043;-96
2023/10/26 01:41:00;;;;;;;23.13;13.30;;;;;;;9.11;100.00;99659.88;6262474;22;20022;-96
2023/10/26 01:43:34;;;;;;;23.37;12.97;;;;;;;9.10;100.00;99657.25;6265075;22;20000;-96
2023/10/26 01:46:02;;;;;;;22.40;13.02;;;;;;;9.06;100.00;99653.75;6266154;22;20091;-96
2023/10/26 01:48:33;;;;;;;25.00;13.65;;;;;;;9.00;100.00;99651.94;6264454;22;20004;-96
2023/10/26 01:51:02;;;;;;;22.27;13.20;;;;;;;8.96;100.00;99662.28;6265095;22;20059;-96
2023/10/26 01:53:30;;;;;;;21.55;12.68;;;;;;;8.95;100.00;99657.94;6260858;22;20064;-96
2023/10/26 01:55:55;;;;;;;22.00;12.75;;;;;;;8.92;100.00;99663.09;6262499;22;19999;-96
2023/10/26 01:58:21;;;;;;;22.95;12.43;;;;;;;8.91;100.00;99657.06;6267067;22;20011;-96
2023/10/26 02:00:52;;;;;;;22.05;13.05;;;;;;;8.92;100.00;99663.09;6268279;22;20035;-96
2023/10/26 02:03:20;;;;;;;21.63;12.48;;;;;;;8.87;100.00;99666.50;6268987;22;20010;-96
2023/10/26 02:05:46;;;;;;;24.90;13.23;;;;;;;8.84;100.00;99655.25;6269244;22;20091;-96
2023/10/26 02:08:17;;;;;;;22.13;13.75;;;;;;;8.83;100.00;99651.75;6269695;22;20011;-96
2023/10/26 02:10:48;;;;;;;21.83;12.20;;;;;;;8.83;100.00;99653.50;6265504;22;20003;-96
2023/10/26 02:13:16;;;;;;;23.05;13.23;;;;;;;8.81;100.00;99650.88;6267901;22;20022;-96
2023/10/26 02:16:01;;;;;;;24.52;12.63;;;;;;;8.81;100.00;99650.88;6269462;22;20011;-96
2023/10/26 02:18:28;;;;;;;21.40;12.18;;;;;;;8.79;100.00;99647.41;6271648;22;20011;-97
2023/10/26 02:20:56;;;;;;;22.50;12.98;;;;;;;8.77;100.00;99651.69;6270059;22;20019;-96
2023/10/26 02:23:34;;;;;;;23.25;12.73;;;;;;;8.75;100.00;99645.63;6271243;22;20007;-96
2023/10/26 02:26:03;;;;;;;21.88;12.77;;;;;;;8.72;100.00;99643.00;6272076;22;20004;-96
2023/10/26 02:28:37;;;;;;;22.33;12.52;;;;;;;8.70;100.00;99642.97;6273588;22;20030;-96
2023/10/26 02:31:03;;;;;;;20.05;11.38;;;;;;;8.66;100.00;99646.38;6271594;22;20000;-96
2023/10/26 02:33:32;;;;;;;23.65;12.38;;;;;;;8.62;100.00;99647.19;6269514;22;20057;-96
2023/10/26 02:36:04;;;;;;;23.75;12.75;;;;;;;8.62;100.00;99638.53;6271329;22;19995;-96
2023/10/26 02:38:34;;;;;;;26.40;13.45;;;;;;;8.61;100.00;99636.78;6274953;22;20454;-96
2023/10/26 02:41:09;;;;;;;25.17;12.75;;;;;;;8.61;100.00;99639.38;6272931;22;20003;-96
2023/10/26 02:43:34;;;;;;;22.73;12.13;;;;;;;8.59;100.00;99638.47;6274124;22;20170;-97
2023/10/26 02:46:04;;;;;;;23.27;13.02;;;;;;;8.56;100.00;99643.63;6273860;22;20008;-96
2023/10/26 02:48:38;;;;;;;21.92;12.55;;;;;;;8.56;100.00;99643.63;6274974;22;20000;-97
2023/10/26 02:51:05;;;;;;;19.33;11.57;;;;;;;8.52;100.00;99642.75;6288612;22;20490;-96
2023/10/26 02:53:43;;;;;;;20.58;11.68;;;;;;;8.45;100.00;99646.97;6248022;22;20034;-96
2023/10/26 02:56:20;;;;;;;20.35;11.40;;;;;;;8.43;100.00;99652.97;6248851;22;20008;-96
2023/10/26 02:58:46;;;;;;;25.50;13.02;;;;;;;8.41;100.00;99655.53;6247746;22;20034;-96
2023/10/26 03:01:17;;;;;;;27.17;15.02;;;;;;;8.37;100.00;99648.56;6247887;22;20027;-96
2023/10/26 03:03:51;;;;;;;23.60;12.73;;;;;;;8.34;100.00;99639.03;6248843;22;20007;-96
2023/10/26 03:06:19;;;;;;;24.33;12.10;;;;;;;8.34;100.00;99641.63;6223776;22;20008;-96
2023/10/26 03:08:49;;;;;;;21.00;11.80;;;;;;;8.31;100.00;99644.19;6247597;22;20002;-96
2023/10/26 03:11:17;;;;;;;22.60;12.32;;;;;;;8.25;100.00;99638.03;6247072;22;20004;-96
2023/10/26 03:13:55;;;;;;;24.90;13.00;;;;;;;8.18;100.00;99630.16;6249318;22;20042;-96
2023/10/26 03:16:20;;;;;;;23.38;12.50;;;;;;;8.17;100.00;99643.97;6248962;22;20003;-96
2023/10/26 03:18:49;;;;;;;20.90;11.80;;;;;;;8.18;100.00;99648.34;6249057;22;20015;-96
2023/10/26 03:21:20;;;;;;;22.95;11.82;;;;;;;8.16;100.00;99644.81;6248550;22;20158;-96
2023/10/26 03:23:55;;;;;;;20.00;10.52;;;;;;;8.13;100.00;99649.97;6247783;22;20007;-96
2023/10/26 03:26:24;;;;;;;26.85;11.95;;;;;;;8.11;100.00;99656.00;6248958;22;20011;-96
2023/10/26 03:28:53;;;;;;;22.33;12.57;;;;;;;8.08;100.00;99654.25;6248334;22;20754;-96
2023/10/26 03:31:22;;;;;;;20.95;11.45;;;;;;;8.06;100.00;99647.28;6248937;22;20073;-96
2023/10/26 03:33:47;;;;;;;29.58;10.85;;;;;;;8.03;100.00;99648.09;6248814;22;20007;-96
2023/10/26 03:36:19;;;;;;;21.45;10.32;;;;;;;8.00;100.00;99643.75;6248762;22;20061;-96
2023/10/26 03:38:46;;;;;;;20.83;11.07;;;;;;;7.98;100.00;99640.25;6247855;22;20015;-96
2023/10/26 03:41:22;;;;;;;20.50;11.02;;;;;;;7.98;100.00;99639.38;6248683;22;20004;-96
2023/10/26 03:43:51;;;;;;;27.08;14.27;;;;;;;7.97;100.00;99632.47;6248397;22;20007;-96
2023/10/26 03:46:22;;;;;;;20.20;11.27;;;;;;;7.98;100.00;99631.59;6247134;22;20007;-96
2023/10/26 03:48:51;;;;;;;20.13;11.43;;;;;;;7.96;100.00;99634.16;6247864;22;19996;-96
2023/10/26 03:51:32;;;;;;;25.15;12.98;;;;;;;7.95;100.00;99634.16;6248289;22;20003;-96
2023/10/26 03:54:00;;;;;;;23.83;12.50;;;;;;;7.94;100.00;99632.41;6247177;22;20077;-96
2023/10/26 03:56:25;;;;;;;21.45;11.00;;;;;;;7.90;100.00;99620.25;6247122;22;20022;-96
2023/10/26 03:58:51;;;;;;;21.20;11.45;;;;;;;7.88;100.00;99612.44;6247992;22;20430;-96
2023/10/26 04:01:32;;;;;;;19.83;11.15;;;;;;;7.89;100.00;99605.53;6246871;22;20449;-96
2023/10/26 04:04:01;;;;;;;20.08;10.85;;;;;;;7.88;100.00;99607.25;6247452;22;19999;-96
2023/10/26 04:06:32;;;;;;;20.17;10.52;;;;;;;7.92;100.00;99609.06;6248571;22;20000;-96
2023/10/26 04:09:03;;;;;;;27.05;12.85;;;;;;;7.94;100.00;99615.13;6247398;22;20000;-96
2023/10/26 04:11:29;;;;;;;24.23;12.50;;;;;;;7.95;100.00;99610.78;6246993;22;20065;-96
2023/10/26 04:14:03;;;;;;;27.73;13.75;;;;;;;7.95;100.00;99615.97;6247392;22;20003;-96
2023/10/26 04:16:40;;;;;;;41.08;14.05;;;;;;;7.95;100.00;99614.28;6247952;22;20009;-96
2023/10/26 04:19:06;;;;;;;73.57;16.33;;;;;;;7.95;100.00;99609.09;6247651;22;20014;-96
2023/10/26 04:21:35;;;;;;;50.92;16.90;;;;;;;7.98;100.00;99610.84;6247462;22;20003;-96
2023/10/26 04:24:03;;;;;;;36.28;15.48;;;;;;;8.00;100.00;99615.19;6247550;22;20359;-96
2023/10/26 04:26:37;;;;;;;82.25;15.40;;;;;;;8.01;100.00;99619.56;6247012;22;20004;-96
2023/10/26 04:29:02;;;;;;;69.90;17.85;;;;;;;8.00;100.00;99611.75;6247248;22;20015;-96
2023/10/26 04:31:30;;;;;;;53.47;17.98;;;;;;;7.99;100.00;99621.25;6247907;22;20057;-96
2023/10/26 04:33:56;;;;;;;58.13;13.60;;;;;;;7.99;100.00;99625.56;6247741;22;20095;-96
2023/10/26 04:36:26;;;;;;;32.70;13.13;;;;;;;8.00;100.00;99617.78;6247670;22;20023;-96
2023/10/26 04:38:52;;;;;;;40.83;13.00;;;;;;;8.01;100.00;99616.97;6246871;22;20004;-96
2023/10/26 04:41:23;;;;;;;35.53;12.27;;;;;;;7.97;100.00;99598.75;6247305;22;20004;-96
2023/10/26 04:43:52;;;;;;;37.60;11.93;;;;;;;7.90;100.00;99604.69;6247169;22;20003;-96
2023/10/26 04:46:26;;;;;;;47.63;12.15;;;;;;;7.79;100.00;99615.78;6247895;22;20014;-96
2023/10/26 04:49:14;;;;;;;36.08;11.52;;;;;;;7.69;100.00;99619.09;6247839;22;20078;-96
2023/10/26 04:51:39;;;;;;;33.35;11.35;;;;;;;7.64;100.00;99612.94;6247863;22;20008;-96
2023/10/26 04:54:05;;;;;;;29.52;11.85;;;;;;;7.63;100.00;99606.00;6247552;22;20010;-96
2023/10/26 04:56:34;;;;;;;33.15;12.60;;;;;;;7.61;100.00;99605.13;6246657;22;20426;-96
2023/10/26 04:59:02;;;;;;;23.95;11.43;;;;;;;7.59;100.00;99610.28;6247325;22;20041;-96
2023/10/26 05:01:36;;;;;;;44.80;12.13;;;;;;;7.54;100.00;99613.66;6246283;22;20110;-96
2023/10/26 05:04:01;;;;;;;50.25;12.45;;;;;;;7.45;100.00;99612.66;6248247;22;20027;-96
2023/10/26 05:06:29;;;;;;;36.65;15.85;;;;;;;7.43;100.00;99603.09;6247627;22;19999;-96
2023/10/26 05:08:55;;;;;;;32.10;12.15;;;;;;;7.39;100.00;99607.38;6246996;22;19996;-96
2023/10/26 05:11:25;;;;;;;22.85;11.18;;;;;;;7.39;100.00;99612.56;6247092;22;20010;-96
2023/10/26 05:14:03;;;;;;;29.67;11.55;;;;;;;7.40;100.00;99606.53;6247537;22;20008;-96
2023/10/26 05:16:36;;;;;;;30.95;11.82;;;;;;;7.40;100.00;99603.06;6249779;22;20008;-96
2023/10/26 05:19:02;;;;;;;20.95;10.68;;;;;;;7.35;100.00;99604.72;6249347;22;20007;-96
2023/10/26 05:21:31;;;;;;;27.60;10.32;;;;;;;7.37;100.00;99593.53;6250097;22;20049;-96
2023/10/26 05:24:03;;;;;;;28.30;11.00;;;;;;;7.42;100.00;99598.78;6249334;22;20008;-96
2023/10/26 05:26:34;;;;;;;35.95;10.98;;;;;;;7.40;100.00;99597.88;6249212;22;20057;-96
2023/10/26 05:29:02;;;;;;;33.13;10.00;;;;;;;7.35;100.00;99597.81;6249687;22;20006;-96
2023/10/26 05:31:35;;;;;;;26.85;10.07;;;;;;;7.36;100.00;99594.38;6249493;22;20003;-96
2023/10/26 05:34:00;;;;;;;26.38;10.75;;;;;;;7.37;100.00;99598.72;6249176;22;20050;-96
2023/10/26 05:36:29;;;;;;;26.63;10.32;;;;;;;7.36;100.00;99596.06;6249152;22;20004;-96
2023/10/26 05:38:57;;;;;;;23.38;9.93;;;;;;;7.38;100.00;99587.47;6249088;22;20007;-96
2023/10/26 05:41:46;;;;;;;40.08;10.95;;;;;;;7.33;100.00;99591.72;6248822;22;20315;-96
2023/10/26 05:44:14;;;;;;;27.80;9.88;;;;;;;7.32;100.00;99596.03;6249063;22;20016;-96
2023/10/26 05:46:42;;;;;;;27.48;10.38;;;;;;;7.31;100.00;99596.91;6248840;22;20019;-96
2023/10/26 05:49:11;;;;;;;24.75;10.30;;;;;;;7.36;100.00;99603.84;6247833;22;20000;-96
2023/10/26 05:51:41;;;;;;;25.45;10.80;;;;;;;7.40;100.00;99600.47;6249705;22;20008;-96
2023/10/26 05:54:12;;;;;;;22.75;10.52;;;;;;;7.37;100.00;99598.72;6249470;22;20437;-96
2023/10/26 05:56:37;;;;;;;40.45;11.50;;;;;;;7.38;100.00;99594.41;6249240;22;20008;-96
2023/10/26 05:59:03;;;;;;;32.75;10.95;;;;;;;7.37;100.00;99588.34;6247666;22;20047;-96
2023/10/26 06:01:34;;;;;;;40.45;10.98;;;;;;;7.35;100.00;99581.41;6249355;22;20015;-96
2023/10/26 06:04:02;;;;;;;25.42;10.02;;;;;;;7.36;100.00;99578.81;6249082;22;20004;-96
2023/10/26 06:06:30;;;;;;;24.87;10.57;;;;;;;7.38;100.00;99565.88;6224079;22;20043;-96
2023/10/26 06:09:02;;;;;;;33.30;9.43;;;;;;;7.34;100.00;99577.03;6249025;22;20035;-96
2023/10/26 06:11:30;;;;;;;30.83;10.10;;;;;;;7.36;100.00;99583.13;6249566;22;20414;-96
2023/10/26 06:14:01;;;;;;;27.20;10.40;;;;;;;7.37;100.00;99582.28;6249163;22;20000;-96
2023/10/26 06:16:27;;;;;;;26.48;10.00;;;;;;;7.38;100.00;99579.72;6248714;22;20087;-96
2023/10/26 06:18:53;;;;;;;31.80;10.35;;;;;;;7.38;100.00;99586.63;6247591;22;20039;-96
2023/10/26 06:21:19;;;;;;;41.55;10.93;;;;;;;7.31;100.00;99588.22;6274622;22;19995;-96
2023/10/26 06:23:45;;;;;;;26.88;11.13;;;;;;;7.29;100.00;99583.03;6249718;22;20004;-96
2023/10/26 06:26:11;;;;;;;28.30;10.48;;;;;;;7.31;100.00;99586.53;6246020;22;20061;-96
2023/10/26 06:28:41;;;;;;;43.25;11.90;;;;;;;7.29;100.00;99584.75;6273623;22;19996;-96
2023/10/26 06:31:09;;;;;;;22.15;10.50;;;;;;;7.30;100.00;99578.72;6248802;22;20006;-96
2023/10/26 06:33:46;;;;;;;75.93;13.50;;;;;;;7.27;100.00;99576.06;6263881;22;20079;-96
2023/10/26 06:36:17;;;;;;;32.20;10.95;;;;;;;7.30;100.00;99581.31;6270432;22;20002;-96
2023/10/26 06:38:59;;;;;;;38.78;11.98;;;;;;;7.33;100.00;99586.56;6272427;22;20031;-96
2023/10/26 06:41:30;;;;;;;50.05;12.48;;;;;;;7.30;100.00;99587.38;6273999;22;20003;-96
2023/10/26 06:44:01;;;;;;;30.88;11.73;;;;;;;7.29;100.00;99585.63;6273635;22;20074;-96
2023/10/26 06:46:37;;;;;;;48.17;12.13;;;;;;;7.31;100.00;99593.41;6272623;22;20007;-97
2023/10/26 06:49:12;;;;;;;37.70;11.63;;;;;;;7.32;100.00;99597.75;6273174;22;20010;-97
2023/10/26 06:51:44;;;;;;;36.80;10.70;;;;;;;7.27;100.00;99597.69;6272669;22;20006;-96
2023/10/26 06:54:23;;;;;;;81.78;11.75;;;;;;;7.22;100.00;99591.53;6300232;22;20026;-96
2023/10/26 06:57:01;;;;;;;53.97;11.45;;;;;;;7.15;100.00;99581.91;6272059;22;20050;-96
2023/10/26 06:59:37;;;;;;;88.57;12.52;;;;;;;7.13;100.00;99581.03;6270035;22;20101;-96
2023/10/26 07:02:03;;;;;;;20.95;8.88;;;;;;;7.16;100.00;99586.25;6270796;22;20095;-96
2023/10/26 07:04:31;;;;;;;24.88;9.73;;;;;;;7.24;100.00;99591.56;6272471;22;20008;-97
2023/10/26 07:06:57;;;;;;;33.13;10.17;;;;;;;7.31;100.00;99588.22;6269942;22;19999;-96
2023/10/26 07:09:30;;;;;;;37.58;10.45;;;;;;;7.35;100.00;99597.81;6271923;22;20254;-96
2023/10/26 07:12:03;;;;;;;47.97;10.90;;;;;;;7.36;100.00;99585.69;6273054;22;20015;-96
2023/10/26 07:14:46;;;;;;;50.40;11.32;;;;;;;7.38;100.00;99571.06;6273391;22;20023;-96
2023/10/26 07:17:12;;;;;;;39.28;10.57;;;;;;;7.39;100.00;99568.50;6273081;22;19991;-96
2023/10/26 07:19:51;;;;;;;37.80;10.23;;;;;;;7.41;100.00;99569.38;6268093;22;20004;-96
2023/10/26 07:22:29;;;;;;;50.92;11.18;;;;;;;7.43;100.00;99572.88;6264149;22;20496;-96
2023/10/26 07:25:01;;;;;;;79.45;12.48;;;;;;;7.38;100.00;99581.44;6262776;22;20014;-96
2023/10/26 07:27:38;;;;;;;89.30;12.32;;;;;;;7.33;100.00;99576.19;6259941;22;20011;-96
2023/10/26 07:30:05;;;;;;;32.08;10.82;;;;;;;7.38;100.00;99571.06;6260692;22;20010;-96
2023/10/26 07:32:31;;;;;;;32.05;10.30;;;;;;;7.39;100.00;99578.88;6249687;22;20457;-96
2023/10/26 07:35:07;;;;;;;48.38;12.02;;;;;;;7.35;100.00;99579.66;6251482;22;20006;-96
2023/10/26 07:37:32;;;;;;;31.58;10.70;;;;;;;7.37;100.00;99577.09;6250632;22;20000;-96
2023/10/26 07:39:58;;;;;;;33.33;11.32;;;;;;;7.40;100.00;99572.84;6251237;22;20303;-96
2023/10/26 07:42:24;;;;;;;81.90;13.50;;;;;;;7.35;100.00;99573.63;6250176;22;20353;-96
2023/10/26 07:45:18;;;;;;;26.17;10.55;;;;;;;7.36;100.00;99576.22;6249789;22;20011;-96
2023/10/26 07:48:02;;;;;;;37.33;11.18;;;;;;;7.41;100.00;99579.75;6250593;22;19999;-96
2023/10/26 07:50:28;;;;;;;34.33;11.75;;;;;;;7.45;100.00;99584.13;6249645;22;20077;-96
2023/10/26 07:52:56;;;;;;;80.10;12.20;;;;;;;7.45;100.00;99586.72;6250526;22;20003;-96
2023/10/26 07:55:25;;;;;;;56.75;11.23;;;;;;;7.44;100.00;99597.97;6250676;22;20004;-96
2023/10/26 07:57:58;;;;;;;46.25;10.25;;;;;;;7.45;100.00;99597.09;6251140;22;20003;-96
2023/10/26 08:00:26;;;;;;;64.93;11.20;;;;;;;7.44;100.00;99600.56;6249895;22;20015;-96
2023/10/26 08:03:00;;;;;;;43.95;10.82;;;;;;;7.44;100.00;99591.91;6250477;22;20014;-96
2023/10/26 08:05:30;;;;;;;26.88;10.25;;;;;;;7.55;100.00;99605.03;6251105;22;20007;-96
2023/10/26 08:07:56;;;;;;;87.28;11.88;;;;;;;7.56;100.00;99602.47;6253144;22;20011;-96
2023/10/26 08:10:24;;;;;;;49.42;11.18;;;;;;;7.61;100.00;99602.53;6251139;22;20003;-96
2023/10/26 08:12:53;;;;;;;74.47;12.63;;;;;;;7.56;100.00;99604.16;6250956;22;20002;-96
2023/10/26 08:15:21;;;;;;;35.70;10.40;;;;;;;7.52;100.00;99615.31;6250486;22;20014;-96
2023/10/26 08:20:30;;;;;;;68.70;12.05;;;;;;;7.56;100.00;99611.94;6190631;22;20024;-95
2023/10/26 08:23:02;;;;;;;85.63;13.02;;;;;;;7.49;100.00;99614.44;6247591;22;20042;-96
2023/10/26 08:25:55;;;;;;;;;;;;;;;;;;;;;
2023/10/26 08:28:30;;;;;;;43.88;11.32;;;;;;;7.52;100.00;99618.81;6275343;22;20059;-96
2023/10/26 08:30:55;;;;;;;51.55;11.95;;;;;;;7.54;100.00;99618.84;6247540;22;20255;-96
2023/10/26 08:33:41;;;;;;;93.90;14.27;;;;;;;7.47;100.00;99618.75;6249910;22;20153;-96
2023/10/26 08:36:07;;;;;;;82.53;13.57;;;;;;;7.50;100.00;99615.31;6249495;22;19999;-96
2023/10/26 08:38:33;;;;;;;50.92;12.20;;;;;;;7.54;100.00;99617.09;6247367;22;20065;-96
2023/10/26 08:41:02;;;;;;;73.43;13.60;;;;;;;7.54;100.00;99613.66;6247780;22;20092;-96
2023/10/26 08:43:31;;;;;;;46.42;13.75;;;;;;;7.56;100.00;99615.44;6247347;22;20026;-96
2023/10/26 08:46:11;;;;;;;58.20;13.77;;;;;;;7.66;100.00;99626.78;6273623;22;20090;-96
2023/10/26 08:48:39;;;;;;;;;;;;;;;7.75;100.00;99616.59;6248761;22;19995;-95
2023/10/26 08:51:05;;;;;;;30.80;12.40;;;;;;;7.84;100.00;99611.53;6248996;22;19931;-96
2023/10/26 08:53:37;;;;;;;35.78;13.80;;;;;;;7.91;100.00;99614.22;6249925;22;20000;-96
2023/10/26 08:56:03;;;;;;;55.38;14.73;;;;;;;7.96;100.00;99617.75;6251421;22;20046;-96
2023/10/26 08:58:32;;;;;;;35.90;13.88;;;;;;;8.03;100.00;99614.38;6252834;22;19996;-96
2023/10/26 09:01:04;;;;;;;43.78;14.13;;;;;;;7.98;100.00;99609.13;6253531;22;20075;-96
2023/10/26 09:03:35;;;;;;;51.55;13.73;;;;;;;7.98;100.00;99616.91;6252362;22;20007;-96
2023/10/26 09:06:01;;;;;;;54.75;14.70;;;;;;;8.01;100.00;99609.19;6256154;22;20068;-96
2023/10/26 09:08:33;;;;;;;26.00;11.40;;;;;;;8.09;100.00;99601.50;6254339;22;20051;-96
2023/10/26 09:11:11;;;;;;;35.10;14.10;;;;;;;8.18;100.00;99606.81;6255638;22;20003;-96
2023/10/26 09:13:39;;;;;;;42.15;14.23;;;;;;;8.25;100.00;99604.28;6259836;22;20035;-96
2023/10/26 09:16:05;;;;;;;41.15;14.63;;;;;;;8.33;100.00;99610.47;6255621;22;20502;-96
2023/10/26 09:18:35;;;;;;;34.55;14.15;;;;;;;8.30;100.00;99607.84;6253699;22;20004;-96
2023/10/26 09:21:08;;;;;;;31.80;13.15;;;;;;;8.28;100.00;99605.19;6252648;22;20035;-96
2023/10/26 09:23:36;;;;;;;37.33;12.52;;;;;;;8.26;100.00;99606.91;6252615;22;20011;-96
2023/10/26 09:26:04;;;;;;;29.33;12.50;;;;;;;8.29;100.00;99606.09;6251526;22;20022;-96
2023/10/26 09:28:51;;;;;;;36.00;13.80;;;;;;;8.33;100.00;99605.28;6251672;22;20265;-96
2023/10/26 09:31:58;;;;;;;24.38;11.00;;;;;;;8.40;100.00;99606.19;6251937;22;20035;-96
2023/10/26 09:34:26;;;;;;;34.75;11.77;;;;;;;8.36;100.00;99605.31;6253329;22;19995;-96
2023/10/26 09:37:03;;;;;;;28.98;12.38;;;;;;;8.29;100.00;99601.75;6252959;22;20082;-96
2023/10/26 09:39:34;;;;;;;29.17;12.38;;;;;;;8.33;100.00;99600.09;6251849;22;20038;-94
2023/10/26 09:42:01;;;;;;;34.55;13.50;;;;;;;8.38;100.00;99603.59;6251801;22;20418;-96
2023/10/26 09:44:39;;;;;;;29.95;13.27;;;;;;;8.43;100.00;99598.44;6250869;22;19996;-95
2023/10/26 09:47:12;;;;;;;31.15;14.27;;;;;;;8.45;100.00;99586.41;6252033;22;20030;-95
2023/10/26 09:49:40;;;;;;;27.33;13.07;;;;;;;8.47;100.00;99592.47;6251600;22;20000;-96
2023/10/26 09:52:06;;;;;;;29.58;13.50;;;;;;;8.47;100.00;99592.47;6252158;22;20003;-96
2023/10/26 09:54:42;;;;;;;32.92;13.55;;;;;;;8.48;100.00;99599.41;6252139;22;20004;-96
2023/10/26 09:57:23;;;;;;;30.20;13.80;;;;;;;8.55;100.00;99593.44;6251757;22;20501;-96
2023/10/26 09:59:55;;;;;;;36.83;14.45;;;;;;;8.56;100.00;99579.63;6251062;22;20007;-96
2023/10/26 10:02:24;;;;;;;38.63;15.02;;;;;;;8.60;100.00;99576.19;6251154;22;20003;-95
2023/10/26 10:04:49;;;;;;;34.97;15.73;;;;;;;8.62;100.00;99581.41;6251861;22;20000;-96
2023/10/26 10:08:05;;;;;;;33.65;15.40;;;;;;;8.61;100.00;99585.72;6251608;22;20004;-95
2023/10/26 10:11:10;;;;;;;33.08;14.75;;;;;;;8.61;100.00;99587.47;6251693;22;20609;-95
2023/10/26 10:13:41;;;;;;;34.63;14.48;;;;;;;8.64;100.00;99587.50;6251440;22;20003;-96
2023/10/26 10:16:39;;;;;;;34.17;15.30;;;;;;;8.68;100.00;99576.28;6250971;22;20004;-95
2023/10/26 10:19:40;;;;;;;37.03;15.55;;;;;;;8.73;100.00;99574.59;6251000;22;20007;-96
2023/10/26 10:22:44;;;;;;;38.10;15.38;;;;;;;8.76;100.00;99564.25;6183871;23;20070;-96
2023/10/26 10:25:10;;;;;;;33.25;14.57;;;;;;;8.77;100.00;99559.94;6215108;23;20004;-96
2023/10/26 10:27:39;;;;;;;34.30;14.57;;;;;;;8.78;100.00;99546.94;6220410;23;20334;-96
2023/10/26 10:30:11;;;;;;;31.47;14.53;;;;;;;8.74;100.00;99558.16;6220766;23;20005;-96
2023/10/26 10:32:50;;;;;;;29.27;13.55;;;;;;;8.73;100.00;99558.16;6220296;23;20007;-95
2023/10/26 10:35:21;;;;;;;31.65;13.98;;;;;;;8.75;100.00;99541.72;6220115;23;20035;-95
2023/10/26 10:38:32;;;;;;;29.70;13.57;;;;;;;8.80;100.00;99541.78;6220611;23;20036;-95
2023/10/26 10:41:04;;;;;;;30.77;14.18;;;;;;;8.79;100.00;99542.63;6223151;23;20008;-96
2023/10/26 11:28:33;;;;;;;30.55;14.45;;;;;;;9.47;100.00;99517.19;6245257;22;20523;-96
2023/10/26 11:31:01;;;;;;;36.20;14.10;;;;;;;9.70;100.00;99518.22;6248344;22;20071;-96
2023/10/26 11:33:47;;;;;;;36.63;15.52;;;;;;;9.90;100.00;99523.50;6249017;22;20000;-96
2023/10/26 11:36:30;;;;;;;29.02;14.55;;;;;;;9.92;100.00;99519.19;6248198;22;20011;-96
2023/10/26 11:38:57;;;;;;;27.23;13.10;;;;;;;10.00;100.00;99515.75;6248574;22;20042;-96
2023/10/26 11:41:33;;;;;;;27.70;13.75;;;;;;;10.01;100.00;99527.91;6250168;22;20071;-96
2023/10/26 11:44:02;;;;;;;29.95;14.60;;;;;;;10.01;100.00;99515.75;6252166;22;20011;-96
2023/10/26 11:46:35;;;;;;;28.73;14.65;;;;;;;9.94;100.00;99520.94;6251121;22;20008;-96
2023/10/26 11:49:11;;;;;;;29.55;14.45;;;;;;;9.96;100.00;99521.81;6249354;22;20075;-96
2023/10/26 11:51:39;;;;;;;28.50;14.50;;;;;;;10.02;100.00;99514.00;6251149;22;20007;-96
2023/10/26 11:54:14;;;;;;;31.08;15.38;;;;;;;10.02;100.00;99507.09;6252973;22;20007;-96
2023/10/26 11:56:43;;;;;;;35.70;16.83;;;;;;;10.11;100.00;99501.06;6251152;22;20003;-96
2023/10/26 11:59:11;;;;;;;32.97;16.33;;;;;;;10.12;100.00;99501.91;6256888;22;20004;-96
2023/10/26 12:01:39;;;;;;;33.60;16.87;;;;;;;10.14;100.00;99493.25;6254938;22;20003;-96
2023/10/26 12:04:12;;;;;;;30.90;16.00;;;;;;;10.19;100.00;99498.47;6255779;22;20321;-96
2023/10/26 12:06:40;;;;;;;30.25;15.02;;;;;;;10.22;100.00;99499.34;6258057;22;20006;-96
2023/10/26 12:09:16;;;;;;;27.40;14.20;;;;;;;10.26;100.00;99501.09;6251517;22;20008;-95
2023/10/26 12:11:46;;;;;;;30.48;15.10;;;;;;;10.25;100.00;99501.09;6255228;22;20004;-96
2023/10/26 12:14:19;;;;;;;26.00;14.45;;;;;;;10.25;100.00;99504.59;6253611;22;20054;-96
2023/10/26 12:17:00;;;;;;;26.70;14.18;;;;;;;10.22;100.00;99509.75;6254488;22;20004;-96
2023/10/26 12:19:29;;;;;;;29.02;15.35;;;;;;;10.24;100.00;99513.25;6254724;22;20035;-95
2023/10/26 12:22:08;;;;;;;30.23;15.23;;;;;;;10.32;100.00;99495.03;6254963;22;20016;-96
2023/10/26 12:24:34;;;;;;;27.48;15.35;;;;;;;10.38;100.00;99495.06;6254240;22;20008;-96
2023/10/26 12:27:02;;;;;;;31.30;15.50;;;;;;;10.43;100.00;99479.50;6254047;22;20556;-96